createdAt,value
2023-03-25T00:01:17.656Z,93619.50
2023-03-25T00:03:51.336Z,93628.13
2023-03-25T00:06:20.436Z,93619.78
2023-03-25T00:09:25.501Z,93628.72
2023-03-25T00:11:57.423Z,93608.19
2023-03-25T00:14:43.058Z,93614.00
2023-03-25T00:17:11.859Z,93607.63
2023-03-25T00:19:41.850Z,93615.31
2023-03-25T00:22:13.180Z,93620.19
2023-03-25T00:24:42.596Z,93614.78
2023-03-25T00:27:11.156Z,93617.13
2023-03-25T00:29:39.811Z,93617.16
2023-03-25T00:32:08.370Z,93606.38
2023-03-25T00:34:42.286Z,93612.28
2023-03-25T00:37:10.439Z,93609.63
2023-03-25T00:39:38.662Z,93620.56
2023-03-25T00:42:17.460Z,93615.56
2023-03-25T00:44:46.677Z,93605.06
2023-03-25T00:47:19.539Z,93600.97
2023-03-25T00:49:51.116Z,93604.19
2023-03-25T00:53:33.170Z,93637.06
2023-03-25T00:56:11.068Z,93625.25
2023-03-25T00:58:39.908Z,93637.06
2023-03-25T01:01:14.244Z,93614.41
2023-03-25T01:03:45.566Z,93661.44
2023-03-25T01:06:24.677Z,93646.22
2023-03-25T01:08:55.486Z,93647.00
2023-03-25T01:11:29.734Z,93620.19
2023-03-25T01:14:19.021Z,93616.72
2023-03-25T01:16:47.124Z,93589.00
2023-03-25T01:19:15.702Z,93605.50
2023-03-25T01:21:45.485Z,93591.25
2023-03-25T01:24:16.108Z,93562.22
2023-03-25T01:26:46.258Z,93603.16
2023-03-25T01:29:20.094Z,93595.94
2023-03-25T01:31:56.766Z,93597.50
2023-03-25T01:34:38.956Z,93590.16
2023-03-25T01:37:18.219Z,93599.00
2023-03-25T01:39:50.523Z,93568.88
2023-03-25T01:42:20.650Z,93584.16
2023-03-25T01:44:50.865Z,93590.59
2023-03-25T01:47:23.338Z,93579.78
2023-03-25T01:50:13.762Z,93583.38
2023-03-25T01:53:19.480Z,93566.91
2023-03-25T01:55:48.626Z,93569.59
2023-03-25T01:58:21.057Z,93579.16
2023-03-25T02:00:52.045Z,93575.13
2023-03-25T02:03:24.928Z,93566.53
2023-03-25T02:06:08.417Z,93573.28
2023-03-25T02:08:42.658Z,93569.69
2023-03-25T02:11:11.508Z,93543.94
2023-03-25T02:13:42.974Z,93564.53
2023-03-25T02:16:34.358Z,93559.84
2023-03-25T02:19:08.094Z,93554.09
2023-03-25T02:22:27.505Z,93570.72
2023-03-25T02:25:12.328Z,93566.47
2023-03-25T02:31:52.718Z,93570.09
2023-03-25T02:38:41.800Z,93573.56
2023-03-25T02:41:53.221Z,93560.41
2023-03-25T02:45:23.933Z,93563.22
2023-03-25T02:48:12.135Z,93577.47
2023-03-25T02:50:58.286Z,93562.13
2023-03-25T02:53:33.936Z,93570.91
2023-03-25T02:56:26.907Z,93590.00
2023-03-25T02:59:23.136Z,93572.44
2023-03-25T03:02:19.221Z,93587.28
2023-03-25T03:06:07.487Z,93590.72
2023-03-25T03:08:59.875Z,93581.16
2023-03-25T03:11:56.404Z,93575.59
2023-03-25T03:15:03.074Z,93577.41
2023-03-25T03:18:07.318Z,93583.50
2023-03-25T03:21:38.698Z,93579.63
2023-03-25T03:24:18.202Z,93585.75
2023-03-25T03:27:05.063Z,93585.59
2023-03-25T03:29:41.706Z,93582.94
2023-03-25T03:32:19.948Z,93569.50
2023-03-25T03:35:11.625Z,93603.63
2023-03-25T03:38:04.881Z,93609.75
2023-03-25T03:40:38.700Z,93605.84
2023-03-25T03:43:40.654Z,93591.66
2023-03-25T03:47:02.560Z,93605.63
2023-03-25T03:49:56.543Z,93597.34
2023-03-25T03:56:08.478Z,93620.69
2023-03-25T03:58:45.660Z,93618.38
2023-03-25T04:02:55.616Z,93622.25
2023-03-25T04:06:22.642Z,93632.44
2023-03-25T04:09:44.221Z,93627.59
2023-03-25T04:12:21.332Z,93635.28
2023-03-25T04:18:23.449Z,93622.28
2023-03-25T04:21:32.585Z,93618.53
2023-03-25T04:24:04.957Z,93621.03
2023-03-25T04:26:34.267Z,93616.81
2023-03-25T04:29:14.142Z,93616.66
2023-03-25T04:31:50.221Z,93618.06
2023-03-25T04:34:29.418Z,93617.59
2023-03-25T04:37:05.285Z,93616.50
2023-03-25T04:39:33.071Z,93618.06
2023-03-25T04:42:03.928Z,93612.59
2023-03-25T04:44:33.920Z,93627.78
2023-03-25T04:47:03.438Z,93630.75
2023-03-25T04:49:35.377Z,93611.53
2023-03-25T04:52:12.910Z,93640.44
2023-03-25T04:54:49.413Z,93640.28
2023-03-25T04:57:17.078Z,93639.69
2023-03-25T05:00:11.472Z,93640.78
2023-03-25T05:03:37.505Z,93656.72
2023-03-25T05:06:06.121Z,93645.47
2023-03-25T05:08:43.439Z,93655.47
2023-03-25T05:11:11.600Z,93647.19
2023-03-25T05:13:51.105Z,93659.06
2023-03-25T05:16:23.817Z,93657.66
2023-03-25T05:18:54.710Z,93660.16
2023-03-25T05:21:22.526Z,93661.25
2023-03-25T05:27:41.041Z,93664.38
2023-03-25T05:34:04.040Z,93671.09
2023-03-25T05:36:57.925Z,93671.72
2023-03-25T05:40:01.880Z,93677.34
2023-03-25T05:42:30.370Z,93670.34
2023-03-25T05:45:22.547Z,93687.50
2023-03-25T05:53:41.696Z,93680.00
2023-03-25T05:56:20.134Z,93671.72
2023-03-25T05:58:50.685Z,93671.72
2023-03-25T06:01:32.771Z,93669.38
2023-03-25T06:04:02.245Z,93670.31
2023-03-25T06:06:34.612Z,93665.16
2023-03-25T06:09:03.305Z,93628.22
2023-03-25T06:11:31.167Z,93671.59
2023-03-25T06:14:02.356Z,93669.25
2023-03-25T06:16:31.809Z,93636.53
2023-03-25T06:19:00.837Z,93674.09
2023-03-25T06:21:35.306Z,93669.25
2023-03-25T06:24:06.640Z,93684.88
2023-03-25T06:26:36.230Z,93673.47
2023-03-25T06:29:06.476Z,93676.59
2023-03-25T06:31:34.593Z,93673.31
2023-03-25T06:34:02.703Z,93669.09
2023-03-25T06:36:31.878Z,93690.50
2023-03-25T06:39:02.385Z,93684.09
2023-03-25T06:41:31.085Z,93691.13
2023-03-25T06:44:12.063Z,93698.97
2023-03-25T06:46:58.372Z,93682.19
2023-03-25T06:49:39.670Z,93697.72
2023-03-25T06:52:08.043Z,93704.59
2023-03-25T06:54:39.100Z,93711.50
2023-03-25T06:57:16.197Z,93703.97
2023-03-25T06:59:44.170Z,93708.22
2023-03-25T07:02:14.930Z,93712.13
2023-03-25T07:04:48.019Z,93707.75
2023-03-25T07:07:16.474Z,93711.50
2023-03-25T07:09:48.568Z,93712.72
2023-03-25T07:12:18.745Z,93718.19
2023-03-25T07:14:57.890Z,93725.59
2023-03-25T07:17:32.597Z,93718.72
2023-03-25T07:20:03.693Z,93720.28
2023-03-25T07:22:32.560Z,93716.16
2023-03-25T07:25:00.134Z,93714.38
2023-03-25T07:27:28.445Z,93722.75
2023-03-25T07:30:05.082Z,93721.34
2023-03-25T07:32:36.371Z,93727.13
2023-03-25T07:35:27.702Z,93718.66
2023-03-25T07:37:58.876Z,93721.53
2023-03-25T07:40:28.841Z,93727.75
2023-03-25T07:42:57.909Z,93723.22
2023-03-25T07:45:58.295Z,93720.28
2023-03-25T07:48:32.311Z,93730.25
2023-03-25T07:51:01.874Z,93727.75
2023-03-25T07:53:29.919Z,93718.72
2023-03-25T07:55:57.693Z,93712.03
2023-03-25T07:58:31.533Z,93720.19
2023-03-25T08:01:02.939Z,93726.28
2023-03-25T08:03:30.909Z,93720.66
2023-03-25T08:06:02.192Z,93736.19
2023-03-25T08:08:33.275Z,93735.16
2023-03-25T08:11:06.961Z,93747.13
2023-03-25T08:13:34.668Z,93750.13
2023-03-25T08:16:02.411Z,93741.38
2023-03-25T08:18:37.201Z,93733.38
2023-03-25T08:21:06.460Z,93722.91
2023-03-25T08:23:37.256Z,93706.97
2023-03-25T08:26:06.179Z,93735.63
2023-03-25T08:28:36.534Z,93724.88
2023-03-25T08:31:09.139Z,93717.66
2023-03-25T08:33:43.882Z,93727.38
2023-03-25T08:36:20.181Z,93719.84
2023-03-25T08:38:53.665Z,93732.31
2023-03-25T08:41:25.410Z,93731.69
2023-03-25T08:44:31.760Z,93724.69
2023-03-25T08:47:00.025Z,93728.09
2023-03-25T08:49:27.961Z,93722.75
2023-03-25T08:51:58.556Z,93730.47
2023-03-25T08:54:35.797Z,93718.28
2023-03-25T08:57:04.991Z,93724.81
2023-03-25T09:00:43.958Z,93724.66
2023-03-25T09:09:40.212Z,93700.88
2023-03-25T09:12:17.989Z,93702.47
2023-03-25T09:14:54.697Z,93693.69
2023-03-25T09:17:29.194Z,93694.47
2023-03-25T09:19:59.594Z,93675.72
2023-03-25T09:22:27.275Z,93669.91
2023-03-25T09:24:56.047Z,93670.22
2023-03-25T09:27:26.589Z,93671.16
2023-03-25T09:29:55.443Z,93672.59
2023-03-25T09:32:24.421Z,93694.00
2023-03-25T09:34:53.455Z,93649.91
2023-03-25T09:37:23.655Z,93680.69
2023-03-25T09:40:21.875Z,93679.25
2023-03-25T09:43:17.268Z,93671.63
2023-03-25T09:45:50.997Z,93669.13
2023-03-25T09:48:38.601Z,93667.09
2023-03-25T09:51:24.737Z,93680.34
2023-03-25T09:54:02.293Z,93679.03
2023-03-25T09:56:36.392Z,93669.97
2023-03-25T09:59:17.866Z,93659.50
2023-03-25T10:02:01.810Z,93648.53
2023-03-25T10:04:47.358Z,93646.19
2023-03-25T10:07:35.605Z,93653.56
2023-03-25T10:10:27.173Z,93645.78
2023-03-25T10:13:21.301Z,93641.63
2023-03-25T10:16:11.125Z,93642.41
2023-03-25T10:18:46.854Z,93642.63
2023-03-25T10:21:25.660Z,93642.34
2023-03-25T10:24:22.683Z,93628.47
2023-03-25T10:26:58.559Z,93635.63
2023-03-25T10:29:36.783Z,93634.75
2023-03-25T10:32:11.407Z,93631.19
2023-03-25T10:34:46.747Z,93646.66
2023-03-25T10:37:21.655Z,93633.31
2023-03-25T10:39:50.010Z,93622.88
2023-03-25T10:42:34.990Z,93622.66
2023-03-25T10:45:01.848Z,93623.59
2023-03-25T10:47:33.351Z,93624.25
2023-03-25T10:50:00.510Z,93625.03
2023-03-25T10:52:27.442Z,93624.91
2023-03-25T10:54:56.414Z,93616.84
2023-03-25T10:57:28.133Z,93625.59
2023-03-25T11:00:18.286Z,93641.75
2023-03-25T11:02:46.478Z,93643.38
2023-03-25T11:05:18.972Z,93659.44
2023-03-25T11:07:55.902Z,93662.06
2023-03-25T11:10:26.208Z,93661.31
2023-03-25T11:12:54.182Z,93658.56
2023-03-25T11:15:24.346Z,93666.13
2023-03-25T11:18:04.959Z,93667.69
2023-03-25T11:20:40.064Z,93666.00
2023-03-25T11:23:16.108Z,93672.00
2023-03-25T11:25:43.642Z,93675.22
2023-03-25T11:28:21.968Z,93672.81
2023-03-25T11:31:07.853Z,93662.00
2023-03-25T11:33:36.912Z,93652.13
2023-03-25T11:36:16.656Z,93647.03
2023-03-25T11:38:46.976Z,93639.53
2023-03-25T11:41:14.649Z,93634.69
2023-03-25T11:43:41.431Z,93637.59
2023-03-25T11:46:08.979Z,93635.72
2023-03-25T11:48:40.060Z,93633.66
2023-03-25T11:51:13.430Z,93614.50
2023-03-25T11:53:45.752Z,93632.81
2023-03-25T11:56:17.456Z,93625.56
2023-03-25T11:58:44.136Z,93634.41
2023-03-25T12:01:30.107Z,93642.03
2023-03-25T12:04:08.514Z,93633.81
2023-03-25T12:06:35.365Z,93633.41
2023-03-25T12:09:09.760Z,93632.84
2023-03-25T12:11:55.019Z,93626.44
2023-03-25T12:14:27.398Z,93626.53
2023-03-25T12:17:00.578Z,93612.16
2023-03-25T12:19:45.614Z,93626.78
2023-03-25T12:22:26.137Z,93619.34
2023-03-25T12:25:17.299Z,93616.09
2023-03-25T12:27:56.532Z,93624.34
2023-03-25T12:30:45.006Z,93634.47
2023-03-25T12:33:36.603Z,93621.06
2023-03-25T12:36:28.295Z,93623.00
2023-03-25T12:39:51.295Z,93613.84
2023-03-25T12:42:33.830Z,93609.44
2023-03-25T12:45:32.928Z,93603.72
2023-03-25T12:48:19.841Z,93608.47
2023-03-25T12:50:46.708Z,93618.56
2023-03-25T12:53:36.822Z,93622.84
2023-03-25T12:56:06.791Z,93625.47
2023-03-25T12:58:52.248Z,93625.22
2023-03-25T13:01:23.328Z,93631.75
2023-03-25T13:04:07.585Z,93616.22
2023-03-25T13:06:53.435Z,93615.25
2023-03-25T13:09:26.865Z,93608.94
2023-03-25T13:12:03.616Z,93609.91
2023-03-25T13:14:41.441Z,93607.69
2023-03-25T13:17:18.550Z,93593.78
2023-03-25T13:19:45.712Z,93593.25
2023-03-25T13:22:24.006Z,93599.28
2023-03-25T13:25:04.667Z,93594.78
2023-03-25T13:27:35.003Z,93621.78
2023-03-25T13:30:03.759Z,93640.03
2023-03-25T13:32:47.854Z,93640.16
2023-03-25T13:35:27.769Z,93629.28
2023-03-25T13:38:01.135Z,93636.22
2023-03-25T13:40:46.033Z,93619.66
2023-03-25T13:43:17.386Z,93619.31
2023-03-25T13:46:05.254Z,93612.06
2023-03-25T13:48:40.612Z,93621.97
2023-03-25T13:51:08.124Z,93610.06
2023-03-25T13:53:59.759Z,93612.91
2023-03-25T13:57:01.735Z,93613.41
2023-03-25T13:59:41.930Z,93610.84
2023-03-25T14:02:25.454Z,93619.13
2023-03-25T14:05:09.367Z,93623.53
2023-03-25T14:07:49.753Z,93621.97
2023-03-25T14:10:24.425Z,93627.22
2023-03-25T14:12:55.310Z,93622.31
2023-03-25T14:15:26.532Z,93619.13
2023-03-25T14:17:56.126Z,93625.56
2023-03-25T14:20:35.738Z,93640.31
2023-03-25T14:23:06.263Z,93624.72
2023-03-25T14:25:43.582Z,93618.97
2023-03-25T14:28:19.723Z,93619.63
2023-03-25T14:31:10.380Z,93623.50
2023-03-25T14:34:05.041Z,93628.78
2023-03-25T14:36:56.078Z,93624.78
2023-03-25T14:39:30.220Z,93618.50
2023-03-25T14:42:07.353Z,93607.50
2023-03-25T14:44:41.328Z,93630.81
2023-03-25T14:47:16.289Z,93625.56
2023-03-25T14:49:54.546Z,93632.13
2023-03-25T14:52:31.821Z,93636.47
2023-03-25T14:55:02.074Z,93639.78
2023-03-25T14:57:39.025Z,93636.19
2023-03-25T15:00:13.610Z,93635.28
2023-03-25T15:02:50.262Z,93626.09
2023-03-25T15:05:36.021Z,93630.13
2023-03-25T15:08:25.868Z,93636.00
2023-03-25T15:11:25.474Z,93637.28
2023-03-25T15:13:58.023Z,93644.41
2023-03-25T15:16:45.988Z,93660.75
2023-03-25T15:19:14.813Z,93659.28
2023-03-25T15:22:10.900Z,93657.97
2023-03-25T15:24:40.603Z,93663.88
2023-03-25T15:27:23.980Z,93659.38
2023-03-25T15:29:59.709Z,93661.53
2023-03-25T15:32:52.746Z,93653.81
2023-03-25T15:35:50.564Z,93645.78
2023-03-25T15:38:47.539Z,93648.25
2023-03-25T15:41:42.110Z,93654.69
2023-03-25T15:44:39.697Z,93639.72
2023-03-25T15:47:36.864Z,93631.56
2023-03-25T15:50:49.721Z,93629.59
2023-03-25T15:53:46.685Z,93645.88
2023-03-25T15:56:21.910Z,93627.00
2023-03-25T15:59:12.508Z,93635.81
2023-03-25T16:01:43.597Z,93635.72
2023-03-25T16:04:30.551Z,93645.56
2023-03-25T16:06:59.051Z,93650.50
2023-03-25T16:09:28.968Z,93640.44
2023-03-25T16:12:00.600Z,93642.94
2023-03-25T16:14:33.018Z,93646.63
2023-03-25T16:17:02.064Z,93645.66
2023-03-25T16:19:51.255Z,93641.75
2023-03-25T16:22:21.518Z,93639.56
2023-03-25T16:24:50.274Z,93635.13
2023-03-25T16:27:24.690Z,93637.69
2023-03-25T16:29:53.955Z,93647.13
2023-03-25T16:32:23.753Z,93642.09
2023-03-25T16:34:51.456Z,93654.84
2023-03-25T16:37:19.100Z,93648.25
2023-03-25T16:39:51.406Z,93657.75
2023-03-25T16:42:24.575Z,93651.84
2023-03-25T16:44:51.702Z,93663.25
2023-03-25T16:47:20.526Z,93648.06
2023-03-25T16:49:48.851Z,93648.63
2023-03-25T16:52:19.658Z,93653.88
2023-03-25T16:54:52.403Z,93643.44
2023-03-25T16:57:22.730Z,93649.13
2023-03-25T16:59:52.276Z,93644.78
2023-03-25T17:02:31.192Z,93651.13
2023-03-25T17:05:16.751Z,93647.91
2023-03-25T17:07:43.911Z,93647.78
2023-03-25T17:10:27.460Z,93649.13
2023-03-25T17:13:08.874Z,93654.91
2023-03-25T17:15:37.237Z,93656.69
2023-03-25T17:18:13.142Z,93661.16
2023-03-25T17:20:42.909Z,93654.47
2023-03-25T17:23:41.990Z,93669.63
2023-03-25T17:26:11.552Z,93679.75
2023-03-25T17:28:42.826Z,93686.66
2023-03-25T17:31:30.655Z,93698.28
2023-03-25T17:34:10.494Z,93695.03
2023-03-25T17:36:45.349Z,93684.25
2023-03-25T17:39:19.329Z,93698.28
2023-03-25T17:41:46.639Z,93701.94
2023-03-25T17:44:17.079Z,93707.81
2023-03-25T17:46:44.148Z,93714.72
2023-03-25T17:49:19.510Z,93712.69
2023-03-25T17:51:46.639Z,93712.59
2023-03-25T17:54:14.618Z,93708.78
2023-03-25T17:56:41.968Z,93710.25
2023-03-25T17:59:23.923Z,93710.91
2023-03-25T18:01:50.656Z,93714.22
2023-03-25T18:04:20.730Z,93718.78
2023-03-25T18:06:47.625Z,93710.63
2023-03-25T18:09:17.366Z,93713.50
2023-03-25T18:11:48.802Z,93712.28
2023-03-25T18:14:15.971Z,93710.28
2023-03-25T18:16:42.947Z,93700.56
2023-03-25T18:19:22.676Z,93702.78
2023-03-25T18:21:49.661Z,93697.63
2023-03-25T18:24:16.354Z,93702.06
2023-03-25T18:26:44.412Z,93705.72
2023-03-25T18:29:24.117Z,93711.59
2023-03-25T18:31:51.989Z,93711.00
2023-03-25T18:34:18.907Z,93718.84
2023-03-25T18:36:45.585Z,93721.72
2023-03-25T18:39:18.035Z,93724.59
2023-03-25T18:41:44.829Z,93720.88
2023-03-25T18:44:11.992Z,93727.31
2023-03-25T18:46:38.956Z,93731.41
2023-03-25T18:49:12.138Z,93732.19
2023-03-25T18:51:38.953Z,93736.28
2023-03-25T18:54:05.695Z,93740.84
2023-03-25T18:56:32.466Z,93736.91
2023-03-25T18:58:59.105Z,93743.38
2023-03-25T19:01:26.599Z,93744.94
2023-03-25T19:03:53.283Z,93745.72
2023-03-25T19:06:19.942Z,93749.16
2023-03-25T19:08:47.271Z,93750.09
2023-03-25T19:11:20.679Z,93737.97
2023-03-25T19:13:48.211Z,93738.72
2023-03-25T19:16:15.147Z,93750.81
2023-03-25T19:18:41.934Z,93748.94
2023-03-25T19:21:08.816Z,93751.94
2023-03-25T19:23:36.458Z,93737.16
2023-03-25T19:26:04.077Z,93747.06
2023-03-25T19:28:30.740Z,93758.75
2023-03-25T19:31:00.981Z,93754.22
2023-03-25T19:33:31.035Z,93763.91
2023-03-25T19:36:01.752Z,93755.13
2023-03-25T19:38:30.139Z,93764.66
2023-03-25T19:41:05.249Z,93781.91
2023-03-25T19:43:31.922Z,93759.78
2023-03-25T19:45:59.343Z,93759.00
2023-03-25T19:48:27.080Z,93756.31
2023-03-25T19:50:57.148Z,93754.31
2023-03-25T19:53:24.841Z,93746.47
2023-03-25T19:55:52.606Z,93744.59
2023-03-25T19:58:22.709Z,93744.91
2023-03-25T20:00:49.951Z,93752.00
2023-03-25T20:03:16.640Z,93739.28
2023-03-25T20:05:43.430Z,93742.75
2023-03-25T20:08:10.090Z,93730.84
2023-03-25T20:10:38.763Z,93745.63
2023-03-25T20:13:06.075Z,93740.75
2023-03-25T20:15:33.194Z,93747.31
2023-03-25T20:17:59.948Z,93742.97
2023-03-25T20:20:26.669Z,93744.53
2023-03-25T20:22:53.483Z,93752.53
2023-03-25T20:25:20.462Z,93762.88
2023-03-25T20:27:47.571Z,93766.31
2023-03-25T20:30:17.671Z,93777.44
2023-03-25T20:32:47.539Z,93775.38
2023-03-25T20:35:16.779Z,93767.38
2023-03-25T20:37:45.141Z,93771.59
2023-03-25T20:40:15.500Z,93761.97
2023-03-25T20:42:44.473Z,93764.75
2023-03-25T20:45:13.861Z,93770.41
2023-03-25T20:47:41.682Z,93774.81
2023-03-25T20:50:10.126Z,93763.84
2023-03-25T20:52:38.161Z,93771.84
2023-03-25T20:55:05.816Z,93761.50
2023-03-25T20:57:33.226Z,93756.63
2023-03-25T20:59:59.951Z,93752.84
2023-03-25T21:02:27.093Z,93738.91
2023-03-25T21:04:56.884Z,93723.84
2023-03-25T21:07:27.947Z,93731.84
2023-03-25T21:09:55.319Z,93743.19
2023-03-25T21:12:29.804Z,93743.66
2023-03-25T21:15:04.698Z,93734.53
2023-03-25T21:17:31.388Z,93735.00
2023-03-25T21:19:58.165Z,93741.44
2023-03-25T21:22:24.941Z,93746.28
2023-03-25T21:24:51.535Z,93745.19
2023-03-25T21:27:18.190Z,93745.53
2023-03-25T21:29:46.187Z,93733.63
2023-03-25T21:32:14.034Z,93731.59
2023-03-25T21:34:40.818Z,93734.63
2023-03-25T21:37:07.481Z,93735.91
2023-03-25T21:39:35.019Z,93740.16
2023-03-25T21:42:09.911Z,93738.28
2023-03-25T21:44:38.080Z,93743.16
2023-03-25T21:47:08.831Z,93740.03
2023-03-25T21:49:41.764Z,93732.97
2023-03-25T21:52:13.742Z,93727.06
2023-03-25T21:54:43.739Z,93723.09
2023-03-25T21:57:13.599Z,93738.91
2023-03-25T21:59:43.230Z,93728.56
2023-03-25T22:05:17.055Z,93747.22
2023-03-25T22:07:47.808Z,93747.38
2023-03-25T22:10:15.876Z,93759.94
2023-03-25T22:12:43.644Z,93763.41
2023-03-25T22:15:12.140Z,93743.38
2023-03-25T22:17:50.535Z,93751.84
2023-03-25T22:20:41.473Z,93744.16
2023-03-25T22:23:22.466Z,93743.91
2023-03-25T22:25:55.223Z,93742.66
2023-03-25T22:28:47.831Z,93742.19
2023-03-25T22:31:21.684Z,93741.53
2023-03-25T22:33:49.537Z,93739.66
2023-03-25T22:36:25.974Z,93732.00
2023-03-25T22:39:03.058Z,93727.75
2023-03-25T22:41:31.853Z,93732.78
2023-03-25T22:43:59.881Z,93726.38
2023-03-25T22:46:28.879Z,93725.72
2023-03-25T22:49:16.123Z,93723.25
2023-03-25T22:51:44.610Z,93725.13
2023-03-25T22:54:26.660Z,93722.31
2023-03-25T22:57:20.783Z,93733.44
2023-03-25T23:00:02.794Z,93724.50
2023-03-25T23:02:31.350Z,93726.69
2023-03-25T23:05:41.612Z,93728.25
2023-03-25T23:08:26.338Z,93727.31
2023-03-25T23:11:35.312Z,93730.75
2023-03-25T23:14:17.261Z,93728.25
2023-03-25T23:17:02.821Z,93730.75
2023-03-25T23:19:32.220Z,93736.25
2023-03-25T23:22:00.498Z,93726.06
2023-03-25T23:24:28.147Z,93727.94
2023-03-25T23:26:57.254Z,93710.56
2023-03-25T23:29:36.289Z,93734.03
2023-03-25T23:32:42.440Z,93732.50
2023-03-25T23:35:15.642Z,93737.03
2023-03-25T23:38:15.832Z,93730.28
2023-03-25T23:41:33.268Z,93726.84
2023-03-25T23:44:18.052Z,93734.66
2023-03-25T23:50:33.479Z,93733.28
2023-03-25T23:53:37.961Z,93731.06
2023-03-25T23:55:58.297Z,93743.44
2023-03-25T23:58:26.681Z,93732.16
